Weather at Hernando Airport

Public forecast

Using degrees Celsius for public forecast. Weather courtesy of forecast.io.

Closest aviation weather report (METAR) to Hernando Airport

Closest report is Area De Material Airport, 53.5 nm (99.1 km) SSW. Retrieved 2022/01/22 21:00 UTC (51 minutes ago):

SAOC 222100Z 02008KT 9999 TS SCT010 OVC015 FEW045CB 21/19 Q1007

Closest aviation forecast (TAF) to Hernando Airport

Forecast is more than 12 hours old.

Closest forecast is Area De Material Airport, 53.5 nm (99.1 km) SSW. Retrieved 2022/01/17 12:00 UTC (5 days ago):

TAF SAOC 171100Z 1712/1712 20010KT 5000 RA BKN015 FEW050CB TX29/1718Z TN15/1809Z BECMG 1714/1716 18015KT 9999 SCT040 BECMG 1800/1802 09015KT 7000 RA BKN015 OVC040